CheckWX is a tool to help pilots better visualize weather data.  It is not intended as a substitute for an official pre-flight weather briefing.

00:25:33 UTC

KHYI METAR
San Marcos Regional Airport
Austin, Texas, USA
Current

30 mins ago

KHYI 202356Z AUTO 16008KT 10SM CLR 26/12 A2997 RMK AO2 SLP141 T02610117 10283 20250 56021
Observed
Apr-20 @ 23:56 UTC
Wind
  • 160° at 8 KTS
Visibility
10 SM
Flight Rules
VFR
Cloud Levels
  • Clear skies
Temperature
26°C / 79°F
Dewpoint
12°C / 54°F
Humidity
42%
Altimeter
29.97" Hg
Pressure
1014.92 hPa
Previous

1 hour ago

KHYI 202256Z 17010KT 10SM CLR 27/12 A2997 RMK AO2 SLP144 T02720117
Observed
Apr-20 @ 22:56 UTC
Wind
  • 170° at 10 KTS
Visibility
10 SM
Flight Rules
VFR
Cloud Levels
  • Clear skies
Temperature
27°C / 81°F
Dewpoint
12°C / 54°F
Humidity
39%
Altimeter
29.97" Hg
Pressure
1014.92 hPa
Previous

2 hours ago

KHYI 202156Z 19008KT 10SM CLR 28/11 A3000 RMK AO2 SLP151 T02780111
Observed
Apr-20 @ 21:56 UTC
Wind
  • 190° at 8 KTS
Visibility
10 SM
Flight Rules
VFR
Cloud Levels
  • Clear skies
Temperature
28°C / 82°F
Dewpoint
11°C / 52°F
Humidity
35%
Altimeter
30" Hg
Pressure
1015.92 hPa